createdAt,value
2023-02-25T00:00:31.344Z,100.00
2023-02-25T00:02:58.924Z,100.00
2023-02-25T00:05:26.313Z,100.00
2023-02-25T00:07:53.633Z,100.00
2023-02-25T00:10:20.307Z,100.00
2023-02-25T00:12:46.864Z,100.00
2023-02-25T00:15:13.513Z,100.00
2023-02-25T00:17:40.156Z,100.00
2023-02-25T00:20:09.776Z,100.00
2023-02-25T00:22:36.829Z,100.00
2023-02-25T00:25:03.543Z,100.00
2023-02-25T00:27:30.261Z,100.00
2023-02-25T00:29:56.949Z,100.00
2023-02-25T00:32:23.886Z,100.00
2023-02-25T00:34:51.999Z,100.00
2023-02-25T00:37:18.801Z,100.00
2023-02-25T00:39:45.627Z,100.00
2023-02-25T00:42:15.953Z,100.00
2023-02-25T00:44:47.160Z,100.00
2023-02-25T00:47:15.220Z,100.00
2023-02-25T00:49:42.043Z,100.00
2023-02-25T00:52:08.929Z,100.00
2023-02-25T00:54:35.694Z,100.00
2023-02-25T00:57:02.526Z,100.00
2023-02-25T00:59:29.792Z,100.00
2023-02-25T01:01:56.376Z,100.00
2023-02-25T01:04:23.134Z,100.00
2023-02-25T01:06:49.994Z,100.00
2023-02-25T01:09:16.896Z,100.00
2023-02-25T01:11:45.820Z,100.00
2023-02-25T01:14:15.946Z,100.00
2023-02-25T01:16:42.428Z,100.00
2023-02-25T01:19:14.087Z,100.00
2023-02-25T01:21:47.319Z,100.00
2023-02-25T01:24:17.092Z,100.00
2023-02-25T01:26:45.564Z,100.00
2023-02-25T01:29:17.459Z,100.00
2023-02-25T01:31:44.861Z,100.00
2023-02-25T01:34:14.972Z,100.00
2023-02-25T01:36:42.874Z,100.00
2023-02-25T01:39:10.457Z,100.00
2023-02-25T01:41:38.360Z,100.00
2023-02-25T01:44:13.301Z,100.00
2023-02-25T01:46:42.109Z,100.00
2023-02-25T01:49:16.720Z,100.00
2023-02-25T01:51:46.065Z,100.00
2023-02-25T01:54:14.828Z,100.00
2023-02-25T01:56:48.442Z,100.00
2023-02-25T01:59:16.475Z,100.00
2023-02-25T02:01:43.846Z,100.00
2023-02-25T02:04:15.124Z,100.00
2023-02-25T02:06:44.426Z,100.00
2023-02-25T02:09:15.838Z,100.00
2023-02-25T02:11:43.715Z,100.00
2023-02-25T02:14:12.934Z,100.00
2023-02-25T02:16:54.406Z,100.00
2023-02-25T02:19:41.875Z,100.00
2023-02-25T02:22:12.676Z,100.00
2023-02-25T02:24:55.600Z,100.00
2023-02-25T02:27:34.173Z,100.00
2023-02-25T02:30:00.557Z,100.00
2023-02-25T02:32:39.249Z,100.00
2023-02-25T02:35:17.836Z,100.00
2023-02-25T02:37:47.022Z,100.00
2023-02-25T02:40:25.975Z,100.00
2023-02-25T02:43:10.817Z,100.00
2023-02-25T02:45:46.449Z,100.00
2023-02-25T02:48:15.792Z,100.00
2023-02-25T02:50:46.918Z,100.00
2023-02-25T02:53:16.627Z,100.00
2023-02-25T02:55:53.714Z,100.00
2023-02-25T02:58:31.835Z,100.00
2023-02-25T03:01:02.269Z,100.00
2023-02-25T03:03:38.625Z,100.00
2023-02-25T03:06:07.911Z,100.00
2023-02-25T03:08:46.317Z,100.00
2023-02-25T03:11:13.911Z,100.00
2023-02-25T03:13:40.920Z,100.00
2023-02-25T03:16:10.649Z,100.00
2023-02-25T03:18:39.364Z,100.00
2023-02-25T03:21:11.913Z,100.00
2023-02-25T03:23:40.295Z,100.00
2023-02-25T03:26:12.855Z,100.00
2023-02-25T03:28:40.250Z,100.00
2023-02-25T03:31:07.830Z,100.00
2023-02-25T03:33:47.960Z,100.00
2023-02-25T03:36:34.582Z,100.00
2023-02-25T03:39:06.376Z,100.00
2023-02-25T03:41:36.013Z,100.00
2023-02-25T03:44:05.033Z,100.00
2023-02-25T03:46:33.151Z,100.00
2023-02-25T03:49:01.441Z,100.00
2023-02-25T03:51:30.963Z,100.00
2023-02-25T03:53:58.140Z,100.00
2023-02-25T03:56:25.301Z,100.00
2023-02-25T03:58:51.897Z,100.00
2023-02-25T04:01:22.891Z,100.00
2023-02-25T04:03:49.390Z,100.00
2023-02-25T04:06:16.315Z,100.00
2023-02-25T04:08:42.772Z,100.00
2023-02-25T04:11:09.210Z,100.00
2023-02-25T04:13:35.643Z,100.00
2023-02-25T04:16:02.110Z,100.00
2023-02-25T04:18:28.952Z,100.00
2023-02-25T04:20:55.426Z,100.00
2023-02-25T04:23:22.244Z,100.00
2023-02-25T04:25:48.852Z,100.00
2023-02-25T04:28:15.587Z,100.00
2023-02-25T04:30:42.233Z,100.00
2023-02-25T04:33:09.790Z,100.00
2023-02-25T04:35:36.202Z,100.00
2023-02-25T04:38:02.889Z,100.00
2023-02-25T04:40:29.430Z,100.00
2023-02-25T04:42:55.814Z,100.00
2023-02-25T04:45:26.919Z,100.00
2023-02-25T04:47:54.262Z,100.00
2023-02-25T04:50:20.783Z,100.00
2023-02-25T04:52:47.230Z,100.00
2023-02-25T04:55:13.659Z,100.00
2023-02-25T04:57:42.773Z,100.00
2023-02-25T05:00:12.191Z,100.00
2023-02-25T05:02:38.588Z,100.00
2023-02-25T05:05:05.260Z,100.00
2023-02-25T05:07:32.074Z,100.00
2023-02-25T05:09:58.476Z,100.00
2023-02-25T05:12:24.947Z,100.00
2023-02-25T05:14:53.898Z,100.00
2023-02-25T05:17:20.350Z,100.00
2023-02-25T05:19:46.762Z,100.00
2023-02-25T05:22:13.586Z,100.00
2023-02-25T05:24:40.026Z,100.00
2023-02-25T05:27:06.666Z,100.00
2023-02-25T05:29:33.091Z,100.00
2023-02-25T05:31:59.660Z,100.00
2023-02-25T05:34:26.516Z,100.00
2023-02-25T05:36:52.967Z,100.00
2023-02-25T05:39:19.347Z,100.00
2023-02-25T05:41:45.766Z,100.00
2023-02-25T05:44:12.172Z,100.00
2023-02-25T05:46:39.764Z,100.00
2023-02-25T05:49:06.296Z,100.00
2023-02-25T05:51:33.212Z,100.00
2023-02-25T05:54:00.379Z,100.00
2023-02-25T05:56:31.722Z,100.00
2023-02-25T05:59:00.792Z,100.00
2023-02-25T06:01:31.683Z,100.00
2023-02-25T06:03:59.178Z,100.00
2023-02-25T06:06:27.030Z,100.00
2023-02-25T06:08:53.737Z,100.00
2023-02-25T06:11:21.603Z,100.00
2023-02-25T06:13:49.238Z,100.00
2023-02-25T06:16:16.179Z,100.00
2023-02-25T06:18:43.021Z,100.00
2023-02-25T06:21:10.402Z,100.00
2023-02-25T06:23:38.759Z,100.00
2023-02-25T06:26:08.080Z,100.00
2023-02-25T06:28:36.212Z,100.00
2023-02-25T06:31:05.145Z,100.00
2023-02-25T06:33:32.210Z,100.00
2023-02-25T06:35:59.071Z,100.00
2023-02-25T06:38:26.621Z,100.00
2023-02-25T06:40:53.201Z,100.00
2023-02-25T06:43:19.759Z,100.00
2023-02-25T06:45:46.348Z,100.00
2023-02-25T06:48:12.898Z,100.00
2023-02-25T06:50:40.157Z,100.00
2023-02-25T06:53:07.473Z,100.00
2023-02-25T06:55:34.061Z,100.00
2023-02-25T06:58:00.578Z,100.00
2023-02-25T07:00:27.128Z,100.00
2023-02-25T07:02:53.540Z,100.00
2023-02-25T07:05:19.932Z,100.00
2023-02-25T07:07:46.406Z,100.00
2023-02-25T07:10:12.845Z,100.00
2023-02-25T07:12:39.243Z,100.00
2023-02-25T07:15:05.899Z,100.00
2023-02-25T07:17:32.313Z,100.00
2023-02-25T07:19:58.704Z,100.00
2023-02-25T07:22:25.604Z,100.00
2023-02-25T07:24:52.234Z,100.00
2023-02-25T07:27:18.697Z,100.00
2023-02-25T07:29:45.091Z,100.00
2023-02-25T07:32:12.090Z,100.00
2023-02-25T07:34:39.270Z,100.00
2023-02-25T07:37:05.709Z,100.00
2023-02-25T07:39:32.138Z,100.00
2023-02-25T07:41:58.502Z,100.00
2023-02-25T07:44:24.899Z,100.00
2023-02-25T07:46:51.252Z,100.00
2023-02-25T07:49:17.649Z,100.00
2023-02-25T07:51:44.196Z,100.00
2023-02-25T07:54:10.625Z,100.00
2023-02-25T07:56:37.212Z,100.00
2023-02-25T07:59:04.177Z,100.00
2023-02-25T08:01:31.798Z,100.00
2023-02-25T08:03:59.754Z,100.00
2023-02-25T08:06:26.760Z,100.00
2023-02-25T08:08:55.217Z,100.00
2023-02-25T08:11:22.889Z,100.00
2023-02-25T08:13:50.399Z,100.00
2023-02-25T08:16:19.966Z,100.00
2023-02-25T08:18:48.376Z,100.00
2023-02-25T08:21:18.471Z,100.00
2023-02-25T08:23:44.958Z,100.00
2023-02-25T08:26:12.000Z,100.00
2023-02-25T08:28:39.686Z,100.00
2023-02-25T08:31:08.533Z,100.00
2023-02-25T08:33:35.362Z,100.00
2023-02-25T08:36:13.925Z,100.00
2023-02-25T08:38:40.310Z,100.00
2023-02-25T08:41:07.619Z,100.00
2023-02-25T08:43:34.216Z,100.00
2023-02-25T08:46:01.397Z,100.00
2023-02-25T08:48:28.044Z,100.00
2023-02-25T08:50:55.627Z,100.00
2023-02-25T08:53:22.439Z,100.00
2023-02-25T08:55:48.822Z,100.00
2023-02-25T08:58:15.183Z,100.00
2023-02-25T09:00:44.097Z,100.00
2023-02-25T09:03:10.542Z,100.00
2023-02-25T09:05:38.134Z,100.00
2023-02-25T09:08:05.198Z,100.00
2023-02-25T09:10:48.269Z,100.00
2023-02-25T09:13:17.201Z,100.00
2023-02-25T09:15:44.042Z,100.00
2023-02-25T09:18:13.739Z,100.00
2023-02-25T09:20:40.459Z,100.00
2023-02-25T09:23:07.071Z,100.00
2023-02-25T09:25:33.579Z,98.31
2023-02-25T09:28:01.055Z,94.66
2023-02-25T09:30:27.503Z,90.14
2023-02-25T09:32:54.006Z,88.58
2023-02-25T09:35:20.549Z,84.13
2023-02-25T09:37:47.287Z,84.50
2023-02-25T09:40:17.206Z,82.95
2023-02-25T09:42:52.472Z,83.76
2023-02-25T09:45:23.073Z,85.83
2023-02-25T09:47:55.110Z,84.76
2023-02-25T09:50:33.000Z,82.27
2023-02-25T09:53:05.193Z,83.93
2023-02-25T09:55:36.258Z,82.50
2023-02-25T09:58:06.944Z,83.27
2023-02-25T10:00:37.372Z,79.63
2023-02-25T10:03:18.697Z,78.29
2023-02-25T10:05:48.672Z,81.56
2023-02-25T10:08:33.789Z,80.53
2023-02-25T10:11:03.998Z,75.04
2023-02-25T10:13:34.573Z,77.97
2023-02-25T10:16:06.860Z,78.45
2023-02-25T10:18:44.417Z,72.02
2023-02-25T10:21:26.536Z,70.67
2023-02-25T10:24:13.180Z,68.64
2023-02-25T10:26:45.081Z,65.97
2023-02-25T10:29:35.032Z,62.23
2023-02-25T10:32:16.616Z,61.20
2023-02-25T10:34:43.816Z,55.26
2023-02-25T10:37:21.616Z,52.94
2023-02-25T10:39:50.729Z,51.60
2023-02-25T10:42:18.954Z,47.56
2023-02-25T10:44:46.705Z,48.42
2023-02-25T10:47:18.315Z,49.08
2023-02-25T10:50:44.895Z,49.25
2023-02-25T10:53:18.893Z,48.49
2023-02-25T10:55:52.133Z,48.77
2023-02-25T10:58:31.688Z,47.60
2023-02-25T11:01:09.751Z,45.89
2023-02-25T11:04:01.462Z,45.56
2023-02-25T11:06:38.054Z,42.60
2023-02-25T11:09:26.876Z,41.35
2023-02-25T11:11:56.664Z,42.95
2023-02-25T11:14:28.287Z,39.62
2023-02-25T11:17:07.297Z,35.08
2023-02-25T11:19:40.924Z,35.83
2023-02-25T11:22:11.412Z,31.44
2023-02-25T11:24:39.702Z,31.72
2023-02-25T11:27:08.521Z,32.44
2023-02-25T11:29:43.614Z,31.89
2023-02-25T11:32:15.567Z,31.60
2023-02-25T11:34:55.607Z,32.62
2023-02-25T11:37:25.130Z,31.16
2023-02-25T11:39:52.776Z,32.03
2023-02-25T11:42:25.118Z,32.79
2023-02-25T11:45:03.668Z,29.85
2023-02-25T11:47:37.454Z,30.59
2023-02-25T11:50:24.231Z,30.97
2023-02-25T11:53:14.188Z,29.57
2023-02-25T11:55:58.971Z,31.19
2023-02-25T11:58:56.492Z,32.78
2023-02-25T12:02:05.261Z,36.08
2023-02-25T12:04:50.019Z,38.12
2023-02-25T12:07:31.725Z,37.00
2023-02-25T12:10:27.204Z,38.64
2023-02-25T12:12:57.054Z,40.94
2023-02-25T12:15:29.252Z,41.26
2023-02-25T12:18:26.338Z,43.89
2023-02-25T12:21:09.902Z,39.62
2023-02-25T12:24:28.996Z,32.83
2023-02-25T12:27:34.153Z,25.17
2023-02-25T12:30:08.626Z,22.32
2023-02-25T12:33:04.266Z,19.50
2023-02-25T12:36:03.868Z,21.16
2023-02-25T12:38:52.133Z,23.94
2023-02-25T12:41:55.176Z,30.41
2023-02-25T12:44:24.791Z,35.35
2023-02-25T12:47:06.232Z,39.67
2023-02-25T12:49:47.986Z,43.06
2023-02-25T12:52:48.306Z,44.07
2023-02-25T12:55:26.933Z,47.90
2023-02-25T12:58:18.325Z,51.16
2023-02-25T13:01:33.353Z,52.45
2023-02-25T13:04:18.308Z,52.35
2023-02-25T13:07:18.301Z,53.25
2023-02-25T13:09:59.559Z,53.09
2023-02-25T13:13:02.526Z,53.37
2023-02-25T13:15:52.896Z,58.53
2023-02-25T13:18:56.996Z,61.57
2023-02-25T13:21:46.981Z,64.59
2023-02-25T13:24:13.410Z,67.74
2023-02-25T13:27:10.757Z,68.82
2023-02-25T13:30:06.470Z,68.20
2023-02-25T13:32:45.099Z,70.19
2023-02-25T13:35:25.758Z,71.83
2023-02-25T13:38:30.132Z,71.63
2023-02-25T13:41:26.445Z,71.94
2023-02-25T13:44:14.745Z,70.26
2023-02-25T13:47:10.828Z,74.06
2023-02-25T13:49:55.871Z,77.10
2023-02-25T13:53:01.331Z,78.16
2023-02-25T13:55:46.343Z,79.85
2023-02-25T13:58:35.293Z,80.89
2023-02-25T14:01:22.747Z,83.51
2023-02-25T14:04:17.132Z,85.06
2023-02-25T14:07:12.122Z,83.81
2023-02-25T14:09:56.690Z,83.92
2023-02-25T14:13:04.731Z,83.67
2023-02-25T14:15:34.097Z,86.04
2023-02-25T14:18:44.889Z,85.79
2023-02-25T14:21:35.455Z,84.22
2023-02-25T14:24:04.995Z,84.06
2023-02-25T14:26:43.187Z,83.61
2023-02-25T14:29:22.492Z,80.61
2023-02-25T14:32:01.046Z,73.44
2023-02-25T14:35:05.092Z,59.02
2023-02-25T15:03:53.499Z,83.97
2023-02-25T15:06:42.033Z,86.33
2023-02-25T15:09:30.300Z,87.04
2023-02-25T15:12:05.921Z,88.57
2023-02-25T15:14:42.323Z,92.09
2023-02-25T15:17:25.202Z,92.10
2023-02-25T15:20:10.970Z,93.25
2023-02-25T15:22:38.384Z,95.79
2023-02-25T15:25:25.950Z,95.67
2023-02-25T15:27:56.742Z,99.02
2023-02-25T15:30:25.847Z,100.00
2023-02-25T15:33:13.740Z,100.00
2023-02-25T15:35:40.236Z,100.00
2023-02-25T15:38:13.581Z,100.00
2023-02-25T15:40:48.924Z,100.00
2023-02-25T15:43:16.281Z,100.00
2023-02-25T15:45:44.472Z,100.00
2023-02-25T15:48:11.019Z,100.00
2023-02-25T15:50:43.716Z,100.00
2023-02-25T15:53:31.887Z,100.00
2023-02-25T15:56:04.397Z,100.00
2023-02-25T15:58:30.905Z,100.00
2023-02-25T16:00:58.402Z,100.00
2023-02-25T16:03:38.336Z,100.00
2023-02-25T16:06:07.058Z,100.00
2023-02-25T16:08:49.453Z,100.00
2023-02-25T16:11:38.175Z,100.00
2023-02-25T16:14:13.892Z,100.00
2023-02-25T16:16:49.335Z,100.00
2023-02-25T16:19:22.790Z,100.00
2023-02-25T16:22:13.990Z,100.00
2023-02-25T16:24:45.561Z,100.00
2023-02-25T16:27:17.750Z,100.00
2023-02-25T16:30:09.684Z,100.00
2023-02-25T16:33:05.460Z,100.00
2023-02-25T16:36:08.062Z,100.00
2023-02-25T16:38:55.809Z,100.00
2023-02-25T16:41:30.342Z,100.00
2023-02-25T16:44:03.484Z,100.00
2023-02-25T16:46:35.601Z,100.00
2023-02-25T16:49:07.916Z,100.00
2023-02-25T16:51:36.130Z,100.00
2023-02-25T16:54:08.836Z,100.00
2023-02-25T16:56:36.614Z,100.00
2023-02-25T16:59:09.334Z,100.00
2023-02-25T17:01:38.223Z,100.00
2023-02-25T17:04:27.768Z,100.00
2023-02-25T17:07:19.945Z,100.00
2023-02-25T17:09:49.120Z,100.00
2023-02-25T17:12:19.708Z,100.00
2023-02-25T17:14:50.113Z,100.00
2023-02-25T17:17:21.018Z,100.00
2023-02-25T17:19:47.922Z,100.00
2023-02-25T17:22:20.010Z,100.00
2023-02-25T17:24:47.012Z,100.00
2023-02-25T17:27:14.825Z,100.00
2023-02-25T17:29:41.421Z,100.00
2023-02-25T17:32:28.468Z,100.00
2023-02-25T17:35:00.171Z,100.00
2023-02-25T17:37:29.769Z,100.00
2023-02-25T17:39:57.114Z,100.00
2023-02-25T17:42:32.661Z,100.00
2023-02-25T17:45:01.085Z,100.00
2023-02-25T17:47:33.698Z,100.00
2023-02-25T17:50:21.662Z,100.00
2023-02-25T17:52:49.051Z,100.00
2023-02-25T17:55:26.073Z,100.00
2023-02-25T17:57:57.361Z,100.00
2023-02-25T18:00:36.242Z,100.00
2023-02-25T18:03:21.175Z,100.00
2023-02-25T18:05:59.194Z,100.00
2023-02-25T18:08:28.465Z,100.00
2023-02-25T18:11:37.938Z,100.00
2023-02-25T18:14:31.358Z,100.00
2023-02-25T18:16:58.345Z,100.00
2023-02-25T18:19:24.829Z,100.00
2023-02-25T18:21:52.598Z,100.00
2023-02-25T18:24:37.721Z,100.00
2023-02-25T18:27:05.848Z,100.00
2023-02-25T18:29:33.234Z,100.00
2023-02-25T18:31:59.976Z,100.00
2023-02-25T18:34:26.578Z,100.00
2023-02-25T18:36:53.057Z,100.00
2023-02-25T18:39:21.250Z,100.00
2023-02-25T18:41:47.730Z,100.00
2023-02-25T18:44:14.983Z,100.00
2023-02-25T18:46:41.796Z,100.00
2023-02-25T18:49:08.396Z,100.00
2023-02-25T18:51:35.697Z,100.00
2023-02-25T18:54:02.436Z,100.00
2023-02-25T18:56:28.940Z,100.00
2023-02-25T18:58:57.418Z,100.00
2023-02-25T19:01:27.394Z,100.00
2023-02-25T19:03:59.248Z,100.00
2023-02-25T19:06:28.242Z,100.00
2023-02-25T19:08:54.924Z,100.00
2023-02-25T19:11:25.255Z,100.00
2023-02-25T19:13:52.152Z,100.00
2023-02-25T19:16:19.328Z,100.00
2023-02-25T19:18:47.318Z,100.00
2023-02-25T19:21:16.450Z,100.00
2023-02-25T19:23:43.326Z,100.00
2023-02-25T19:26:10.643Z,100.00
2023-02-25T19:28:37.219Z,100.00
2023-02-25T19:31:08.101Z,100.00
2023-02-25T19:33:35.438Z,100.00
2023-02-25T19:36:03.054Z,100.00
2023-02-25T19:38:29.702Z,100.00
2023-02-25T19:41:04.990Z,100.00
2023-02-25T19:43:32.246Z,100.00
2023-02-25T19:45:58.903Z,100.00
2023-02-25T19:48:25.487Z,100.00
2023-02-25T19:50:51.989Z,100.00
2023-02-25T19:53:19.179Z,100.00
2023-02-25T19:55:45.740Z,100.00
2023-02-25T19:58:12.319Z,100.00
2023-02-25T20:00:39.944Z,100.00
2023-02-25T20:03:07.620Z,100.00
2023-02-25T20:05:34.910Z,100.00
2023-02-25T20:08:02.292Z,100.00
2023-02-25T20:10:28.846Z,100.00
2023-02-25T20:12:55.364Z,100.00
2023-02-25T20:15:21.937Z,100.00
2023-02-25T20:17:49.295Z,100.00
2023-02-25T20:20:16.921Z,100.00
2023-02-25T20:22:43.691Z,100.00
2023-02-25T20:25:13.268Z,100.00
2023-02-25T20:27:43.290Z,100.00
2023-02-25T20:30:15.628Z,100.00
2023-02-25T20:32:46.153Z,100.00
2023-02-25T20:35:21.400Z,100.00
2023-02-25T20:38:14.231Z,100.00
2023-02-25T20:40:40.893Z,100.00
2023-02-25T20:43:09.500Z,100.00
2023-02-25T20:45:36.397Z,100.00
2023-02-25T20:48:03.014Z,100.00
2023-02-25T20:50:29.765Z,100.00
2023-02-25T20:52:56.556Z,100.00
2023-02-25T20:55:23.538Z,100.00
2023-02-25T20:57:50.058Z,100.00
2023-02-25T21:00:17.090Z,100.00
2023-02-25T21:02:43.593Z,100.00
2023-02-25T21:05:10.119Z,100.00
2023-02-25T21:07:36.571Z,100.00
2023-02-25T21:10:03.319Z,100.00
2023-02-25T21:12:29.966Z,100.00
2023-02-25T21:14:56.499Z,100.00
2023-02-25T21:17:23.082Z,100.00
2023-02-25T21:19:49.592Z,100.00
2023-02-25T21:22:16.118Z,100.00
2023-02-25T21:24:42.733Z,100.00
2023-02-25T21:27:09.264Z,100.00
2023-02-25T21:29:35.863Z,100.00
2023-02-25T21:32:02.381Z,100.00
2023-02-25T21:34:29.172Z,100.00
2023-02-25T21:36:58.385Z,100.00
2023-02-25T21:39:25.991Z,100.00
2023-02-25T21:41:52.781Z,100.00
2023-02-25T21:44:19.344Z,100.00
2023-02-25T21:46:45.865Z,100.00
2023-02-25T21:49:12.539Z,100.00
2023-02-25T21:51:40.238Z,100.00
2023-02-25T21:54:07.027Z,100.00
2023-02-25T21:56:33.669Z,100.00
2023-02-25T21:59:03.362Z,100.00
2023-02-25T22:01:32.702Z,100.00
2023-02-25T22:03:59.292Z,100.00
2023-02-25T22:06:26.941Z,100.00
2023-02-25T22:08:54.796Z,100.00
2023-02-25T22:11:27.480Z,100.00
2023-02-25T22:13:54.707Z,100.00
2023-02-25T22:16:23.193Z,100.00
2023-02-25T22:18:51.150Z,100.00
2023-02-25T22:21:23.908Z,100.00
2023-02-25T22:23:52.319Z,100.00
2023-02-25T22:26:23.331Z,100.00
2023-02-25T22:28:54.777Z,100.00
2023-02-25T22:31:21.543Z,100.00
2023-02-25T22:33:48.144Z,100.00
2023-02-25T22:36:17.113Z,100.00
2023-02-25T22:38:45.080Z,100.00
2023-02-25T22:41:14.760Z,100.00
2023-02-25T22:43:41.623Z,100.00
2023-02-25T22:46:14.791Z,100.00
2023-02-25T22:48:43.213Z,100.00
2023-02-25T22:51:11.165Z,100.00
2023-02-25T22:53:39.452Z,100.00
2023-02-25T22:56:10.416Z,100.00
2023-02-25T22:58:40.406Z,100.00
2023-02-25T23:01:13.671Z,100.00
2023-02-25T23:03:43.720Z,100.00
2023-02-25T23:06:10.455Z,100.00
2023-02-25T23:08:37.337Z,100.00
2023-02-25T23:11:11.648Z,100.00
2023-02-25T23:13:45.976Z,100.00
2023-02-25T23:16:14.744Z,100.00
2023-02-25T23:18:42.198Z,100.00
2023-02-25T23:21:12.202Z,100.00
2023-02-25T23:23:39.558Z,100.00
2023-02-25T23:26:08.316Z,100.00
2023-02-25T23:28:35.811Z,100.00
2023-02-25T23:31:03.353Z,100.00
2023-02-25T23:33:31.077Z,100.00
2023-02-25T23:35:58.322Z,100.00
2023-02-25T23:38:25.430Z,100.00
2023-02-25T23:40:51.932Z,100.00
2023-02-25T23:43:18.452Z,100.00
2023-02-25T23:45:47.022Z,100.00
2023-02-25T23:48:14.086Z,100.00
2023-02-25T23:50:40.658Z,100.00
2023-02-25T23:53:07.225Z,100.00
2023-02-25T23:55:35.544Z,100.00
2023-02-25T23:58:02.583Z,100.00
